createdAt,value
2019-03-22T00:02:14.417Z,44.57
2019-03-22T00:04:42.805Z,48.50
2019-03-22T00:07:11.237Z,43.30
2019-03-22T00:09:39.542Z,40.30
2019-03-22T00:12:07.857Z,50.10
2019-03-22T00:14:37.154Z,45.63
2019-03-22T00:17:05.692Z,47.30
2019-03-22T00:19:33.924Z,48.10
2019-03-22T00:22:02.412Z,41.43
2019-03-22T00:24:30.748Z,47.60
2019-03-22T00:26:59.086Z,43.53
2019-03-22T00:29:27.576Z,45.50
2019-03-22T00:31:55.981Z,54.50
2019-03-22T00:34:25.335Z,44.97
2019-03-22T00:36:53.648Z,38.37
2019-03-22T00:39:21.862Z,46.83
2019-03-22T00:41:50.213Z,42.93
2019-03-22T00:44:18.569Z,44.53
2019-03-22T00:46:47.061Z,55.07
2019-03-22T00:49:15.313Z,43.70
2019-03-22T00:51:43.512Z,41.07
2019-03-22T00:54:11.885Z,50.50
2019-03-22T00:56:40.252Z,43.73
2019-03-22T00:59:08.554Z,49.10
2019-03-22T01:01:36.906Z,54.00
2019-03-22T01:04:05.364Z,42.03
2019-03-22T01:06:33.767Z,53.30
2019-03-22T01:09:02.163Z,41.40
2019-03-22T01:11:32.144Z,43.23
2019-03-22T01:14:00.440Z,50.97
2019-03-22T01:16:28.646Z,47.50
2019-03-22T01:18:57.001Z,42.60
2019-03-22T01:21:26.250Z,59.43
2019-03-22T01:23:54.521Z,42.40
2019-03-22T01:26:22.838Z,52.83
2019-03-22T01:28:51.230Z,46.27
2019-03-22T01:31:19.504Z,59.30
2019-03-22T01:33:47.846Z,56.87
2019-03-22T01:36:16.160Z,45.70
2019-03-22T01:38:44.482Z,48.80
2019-03-22T01:41:12.791Z,45.00
2019-03-22T01:43:41.135Z,46.43
2019-03-22T01:46:09.504Z,53.20
2019-03-22T01:48:37.791Z,46.87
2019-03-22T01:51:06.153Z,48.83
2019-03-22T01:53:34.611Z,49.00
2019-03-22T01:56:02.833Z,42.87
2019-03-22T01:58:31.224Z,49.27
2019-03-22T02:00:59.469Z,54.57
2019-03-22T02:03:27.717Z,54.60
2019-03-22T02:05:55.932Z,54.53
2019-03-22T02:08:25.326Z,53.13
2019-03-22T02:10:53.904Z,53.40
2019-03-22T02:13:22.260Z,43.10
2019-03-22T02:15:50.541Z,51.33
2019-03-22T02:18:18.920Z,44.20
2019-03-22T02:20:47.320Z,63.03
2019-03-22T02:23:15.672Z,53.80
2019-03-22T02:25:44.350Z,58.23
2019-03-22T02:28:12.760Z,48.50
2019-03-22T02:30:41.005Z,47.97
2019-03-22T02:33:09.395Z,51.60
2019-03-22T02:35:39.033Z,45.73
2019-03-22T02:38:07.254Z,50.43
2019-03-22T02:40:35.575Z,52.70
2019-03-22T02:43:03.996Z,47.03
2019-03-22T02:45:32.224Z,48.67
2019-03-22T02:48:00.645Z,56.40
2019-03-22T02:50:28.949Z,45.47
2019-03-22T02:52:57.284Z,52.90
2019-03-22T02:55:25.638Z,50.43
2019-03-22T02:57:53.977Z,48.57
2019-03-22T03:00:22.189Z,52.47
2019-03-22T03:02:50.672Z,52.93
2019-03-22T03:05:18.952Z,50.87
2019-03-22T03:07:47.258Z,50.23
2019-03-22T03:10:16.213Z,46.73
2019-03-22T03:12:44.972Z,53.40
2019-03-22T03:15:15.033Z,54.70
2019-03-22T03:17:43.575Z,52.57
2019-03-22T03:20:13.649Z,49.30
2019-03-22T03:22:42.133Z,48.60
2019-03-22T03:25:10.601Z,56.27
2019-03-22T03:27:38.893Z,48.53
2019-03-22T03:30:08.680Z,51.80
2019-03-22T03:32:37.009Z,51.50
2019-03-22T03:35:05.534Z,46.27
2019-03-22T03:37:33.883Z,39.17
2019-03-22T03:40:02.974Z,44.10
2019-03-22T03:42:31.355Z,50.97
2019-03-22T03:44:59.812Z,51.60
2019-03-22T03:47:28.205Z,53.37
2019-03-22T03:49:56.593Z,44.33
2019-03-22T03:52:25.006Z,60.20
2019-03-22T03:54:53.248Z,55.43
2019-03-22T03:57:22.681Z,46.70
2019-03-22T03:59:51.601Z,56.63
2019-03-22T04:02:19.873Z,61.73
2019-03-22T04:04:48.114Z,50.33
2019-03-22T04:07:16.474Z,52.07
2019-03-22T04:09:44.714Z,45.03
2019-03-22T04:12:13.112Z,51.37
2019-03-22T04:14:41.426Z,50.67
2019-03-22T04:17:09.880Z,53.40
2019-03-22T04:19:39.148Z,54.17
2019-03-22T04:22:07.525Z,57.50
2019-03-22T04:24:35.805Z,55.30
2019-03-22T04:27:04.105Z,51.87
2019-03-22T04:29:32.496Z,49.33
2019-03-22T04:32:00.855Z,51.13
2019-03-22T04:34:29.154Z,54.20
2019-03-22T04:36:57.471Z,57.70
2019-03-22T04:39:25.870Z,49.73
2019-03-22T04:41:54.153Z,53.53
2019-03-22T04:44:22.427Z,59.63
2019-03-22T04:46:50.704Z,57.03
2019-03-22T04:49:20.645Z,52.23
2019-03-22T04:51:49.432Z,52.70
2019-03-22T04:54:19.012Z,66.73
2019-03-22T04:56:49.467Z,59.13
2019-03-22T04:59:19.415Z,62.80
2019-03-22T05:01:49.511Z,49.70
2019-03-22T05:04:20.133Z,42.70
2019-03-22T05:06:49.704Z,61.27
2019-03-22T05:09:18.274Z,54.43
2019-03-22T05:11:47.457Z,49.00
2019-03-22T05:14:17.254Z,55.43
2019-03-22T05:16:46.919Z,57.33
2019-03-22T05:19:16.695Z,58.30
2019-03-22T05:21:45.146Z,55.10
2019-03-22T05:24:14.549Z,49.13
2019-03-22T05:26:43.322Z,53.43
2019-03-22T05:29:11.802Z,57.50
2019-03-22T05:31:41.677Z,53.90
2019-03-22T05:34:09.980Z,45.40
2019-03-22T05:36:38.367Z,51.43
2019-03-22T05:39:07.824Z,57.63
2019-03-22T05:41:36.101Z,53.40
2019-03-22T05:44:04.332Z,59.17
2019-03-22T05:46:32.702Z,49.00
2019-03-22T05:49:00.835Z,51.83
2019-03-22T05:51:29.262Z,57.00
2019-03-22T05:53:57.592Z,53.37
2019-03-22T05:56:25.967Z,62.67
2019-03-22T05:58:54.184Z,51.87
2019-03-22T06:01:22.504Z,52.10
2019-03-22T06:03:50.821Z,56.23
2019-03-22T06:06:22.376Z,56.33
2019-03-22T06:08:50.712Z,50.57
2019-03-22T06:14:46.424Z,59.73
2019-03-22T06:17:14.675Z,53.90
2019-03-22T06:19:42.970Z,52.63
2019-03-22T06:25:27.373Z,59.53
2019-03-22T06:27:56.713Z,54.37
2019-03-22T06:33:29.772Z,58.13
2019-03-22T06:39:14.552Z,57.43
2019-03-22T06:41:43.122Z,59.67
2019-03-22T06:44:11.489Z,54.77
2019-03-22T06:46:39.902Z,55.20
2019-03-22T06:49:08.265Z,52.20
2019-03-22T06:51:36.780Z,52.90
2019-03-22T06:54:05.076Z,58.87
2019-03-22T06:59:49.571Z,66.93
2019-03-22T07:02:17.890Z,54.37
2019-03-22T07:04:46.158Z,45.73
2019-03-22T07:10:30.231Z,65.27
2019-03-22T07:16:14.884Z,50.10
2019-03-22T07:18:43.263Z,55.77
2019-03-22T07:21:11.465Z,49.47
2019-03-22T07:23:48.879Z,53.93
2019-03-22T07:26:17.255Z,59.53
2019-03-22T07:28:45.570Z,55.23
2019-03-22T07:34:29.916Z,50.43
2019-03-22T07:40:14.273Z,50.37
2019-03-22T07:45:58.755Z,46.10
2019-03-22T07:51:46.365Z,49.00
2019-03-22T07:57:32.837Z,46.30
2019-03-22T08:00:01.140Z,55.17
2019-03-22T08:02:29.480Z,51.33
2019-03-22T08:08:15.209Z,42.03
2019-03-22T08:10:43.512Z,48.17
2019-03-22T08:13:11.871Z,43.67
2019-03-22T08:15:41.632Z,45.43
2019-03-22T08:18:10.133Z,44.20
2019-03-22T08:23:53.529Z,48.97
2019-03-22T08:26:21.980Z,42.23
2019-03-22T08:28:50.372Z,41.13
2019-03-22T08:31:19.714Z,40.87
2019-03-22T08:37:03.554Z,37.87
2019-03-22T08:42:48.671Z,45.23
2019-03-22T08:48:34.704Z,38.23
2019-03-22T08:51:03.046Z,36.80
2019-03-22T08:56:36.251Z,27.37
2019-03-22T08:59:05.011Z,25.40
2019-03-22T09:04:48.980Z,30.60
2019-03-22T09:10:33.110Z,23.07
2019-03-22T09:16:16.716Z,22.33
2019-03-22T09:22:01.276Z,25.63
2019-03-22T09:24:39.133Z,25.13
2019-03-22T09:30:15.710Z,27.87
2019-03-22T09:32:43.944Z,24.13
2019-03-22T09:35:12.515Z,19.50
2019-03-22T09:40:56.202Z,16.60
2019-03-22T09:46:41.438Z,15.67
2019-03-22T09:49:09.818Z,14.63
2019-03-22T09:54:53.206Z,18.83
2019-03-22T10:00:41.465Z,12.30
2019-03-22T10:03:09.865Z,11.97
2019-03-22T10:08:46.238Z,13.87
2019-03-22T10:11:16.076Z,18.00
2019-03-22T10:17:01.257Z,13.87
2019-03-22T10:19:29.671Z,15.87
2019-03-22T10:21:58.021Z,16.20
2019-03-22T10:24:26.309Z,11.07
2019-03-22T10:30:11.677Z,14.07
2019-03-22T10:35:55.867Z,9.07
2019-03-22T10:41:39.873Z,5.83
2019-03-22T10:47:24.211Z,6.08
2019-03-22T10:53:09.132Z,5.67
2019-03-22T10:55:37.529Z,6.10
2019-03-22T10:58:19.778Z,8.10
2019-03-22T11:03:51.450Z,6.05
2019-03-22T11:06:26.133Z,6.30
2019-03-22T11:08:49.963Z,6.33
2019-03-22T11:11:18.300Z,5.33
2019-03-22T11:13:46.545Z,6.55
2019-03-22T11:19:30.477Z,10.05
2019-03-22T11:21:58.832Z,7.47
2019-03-22T11:24:27.360Z,5.50
2019-03-22T11:26:55.747Z,8.78
2019-03-22T11:29:24.206Z,6.27
2019-03-22T11:31:52.567Z,5.67
2019-03-22T11:34:20.908Z,7.47
2019-03-22T11:36:49.325Z,8.23
2019-03-22T11:39:17.740Z,6.47
2019-03-22T11:41:46.220Z,9.15
2019-03-22T11:44:15.578Z,9.17
2019-03-22T11:46:45.164Z,7.22
2019-03-22T11:52:30.063Z,9.03
2019-03-22T11:54:58.437Z,4.03
2019-03-22T11:57:26.733Z,4.72
2019-03-22T11:59:55.145Z,4.00
2019-03-22T12:05:40.568Z,3.27
2019-03-22T12:11:26.485Z,5.93
2019-03-22T12:17:10.797Z,7.83
2019-03-22T12:19:39.083Z,6.13
2019-03-22T12:22:07.395Z,5.80
2019-03-22T12:27:36.262Z,3.63
2019-03-22T12:29:58.512Z,8.97
2019-03-22T12:35:31.165Z,7.53
2019-03-22T12:41:15.282Z,7.07
2019-03-22T12:46:59.262Z,6.87
2019-03-22T12:52:43.993Z,6.00
2019-03-22T12:58:16.547Z,8.50
2019-03-22T13:00:44.971Z,5.85
2019-03-22T13:03:13.255Z,4.72
2019-03-22T13:05:41.434Z,6.58
2019-03-22T13:08:09.856Z,5.90
2019-03-22T13:10:38.158Z,10.30
2019-03-22T13:13:06.373Z,4.20
2019-03-22T13:15:34.754Z,9.10
2019-03-22T13:18:03.042Z,8.28
2019-03-22T13:23:59.626Z,5.25
2019-03-22T13:29:45.254Z,5.33
2019-03-22T13:35:31.323Z,7.00
2019-03-22T13:37:59.793Z,7.35
2019-03-22T13:40:28.172Z,7.00
2019-03-22T13:42:56.457Z,6.05
2019-03-22T13:48:41.188Z,3.12
2019-03-22T13:54:24.691Z,6.03
2019-03-22T14:00:21.144Z,4.90
2019-03-22T14:06:05.260Z,4.87
2019-03-22T14:11:49.736Z,6.10
2019-03-22T14:17:33.354Z,4.12
2019-03-22T14:20:10.878Z,4.95
2019-03-22T14:22:31.726Z,5.97
2019-03-22T14:25:01.332Z,5.75
2019-03-22T14:27:29.722Z,5.25
2019-03-22T14:29:58.017Z,3.47
2019-03-22T14:35:42.781Z,5.62
2019-03-22T14:41:15.295Z,5.30
2019-03-22T14:47:00.427Z,3.58
2019-03-22T14:52:45.167Z,7.08
2019-03-22T14:55:16.250Z,5.35
2019-03-22T14:58:05.209Z,5.20
2019-03-22T15:00:37.504Z,7.28
2019-03-22T15:06:22.261Z,5.20
2019-03-22T15:12:06.769Z,5.57
2019-03-22T15:14:36.779Z,4.00
2019-03-22T15:17:06.777Z,7.43
2019-03-22T15:22:51.925Z,9.80
2019-03-22T15:28:38.824Z,5.83
2019-03-22T15:31:08.647Z,6.90
2019-03-22T15:36:54.693Z,6.50
2019-03-22T15:42:39.528Z,5.43
2019-03-22T15:48:23.359Z,5.57
2019-03-22T15:50:51.793Z,6.93
2019-03-22T15:53:20.365Z,10.87
2019-03-22T15:55:48.628Z,6.00
2019-03-22T15:58:16.887Z,4.73
2019-03-22T16:00:46.239Z,5.10
2019-03-22T16:06:30.934Z,5.67
2019-03-22T16:12:14.917Z,6.27
2019-03-22T16:18:11.013Z,3.63
2019-03-22T16:20:39.241Z,7.73
2019-03-22T16:26:23.566Z,6.77
2019-03-22T16:32:07.576Z,11.53
2019-03-22T16:37:52.228Z,7.30
2019-03-22T16:40:24.384Z,12.97
2019-03-22T16:42:50.549Z,15.77
2019-03-22T16:48:35.077Z,8.37
2019-03-22T16:51:05.945Z,7.17
2019-03-22T16:53:34.326Z,10.70
2019-03-22T16:56:02.780Z,6.13
2019-03-22T17:02:00.292Z,11.67
2019-03-22T17:07:45.812Z,31.93
2019-03-22T17:13:29.957Z,10.40
2019-03-22T17:15:58.237Z,13.30
2019-03-22T17:18:26.564Z,17.60
2019-03-22T17:20:54.886Z,15.60
2019-03-22T17:26:40.266Z,16.20
2019-03-22T17:29:08.549Z,8.53
2019-03-22T17:34:41.514Z,9.57
2019-03-22T17:37:09.990Z,10.23
2019-03-22T17:39:38.328Z,7.17
2019-03-22T17:45:13.361Z,11.00
2019-03-22T17:50:57.457Z,14.20
2019-03-22T17:53:25.784Z,13.27
2019-03-22T17:55:54.500Z,18.77
2019-03-22T17:58:23.402Z,14.53
2019-03-22T18:00:53.900Z,17.47
2019-03-22T18:03:21.890Z,15.17
2019-03-22T18:05:50.767Z,24.47
2019-03-22T18:08:19.599Z,23.53
2019-03-22T18:10:47.984Z,21.07
2019-03-22T18:13:17.435Z,17.70
2019-03-22T18:15:54.685Z,20.33
2019-03-22T18:18:23.497Z,19.67
2019-03-22T18:20:51.859Z,20.93
2019-03-22T18:23:20.197Z,26.87
2019-03-22T18:25:48.597Z,23.00
2019-03-22T18:28:17.065Z,28.27
2019-03-22T18:30:45.386Z,31.73
2019-03-22T18:33:13.754Z,30.73
2019-03-22T18:35:42.017Z,30.77
2019-03-22T18:41:14.862Z,29.67
2019-03-22T18:46:58.762Z,25.27
2019-03-22T18:52:44.177Z,30.47
2019-03-22T18:58:30.065Z,26.43
2019-03-22T19:04:14.684Z,25.07
2019-03-22T19:09:59.237Z,26.83
2019-03-22T19:12:27.728Z,22.80
2019-03-22T19:14:56.105Z,28.53
2019-03-22T19:17:25.526Z,29.03
2019-03-22T19:19:53.957Z,18.50
2019-03-22T19:22:22.385Z,22.17
2019-03-22T19:24:50.757Z,30.27
2019-03-22T19:27:19.246Z,34.20
2019-03-22T19:29:47.612Z,27.50
2019-03-22T19:32:15.910Z,32.03
2019-03-22T19:34:54.002Z,31.50
2019-03-22T19:37:14.255Z,37.70
2019-03-22T19:39:42.569Z,31.40
2019-03-22T19:42:10.771Z,37.60
2019-03-22T19:44:38.982Z,27.00
2019-03-22T19:47:07.368Z,42.37
2019-03-22T19:49:36.133Z,28.23
2019-03-22T19:52:04.567Z,35.97
2019-03-22T19:54:33.792Z,36.97
2019-03-22T19:57:02.590Z,55.97
2019-03-22T19:59:30.970Z,44.93
2019-03-22T20:01:59.390Z,38.93
2019-03-22T20:04:27.728Z,31.93
2019-03-22T20:06:55.972Z,42.60
2019-03-22T20:09:27.620Z,34.20
2019-03-22T20:11:57.084Z,44.80
2019-03-22T20:14:25.509Z,45.63
2019-03-22T20:16:53.832Z,38.13
2019-03-22T20:19:22.113Z,34.47
2019-03-22T20:21:51.237Z,39.43
2019-03-22T20:24:20.789Z,40.17
2019-03-22T20:26:49.367Z,44.77
2019-03-22T20:29:17.771Z,52.73
2019-03-22T20:31:46.075Z,60.60
2019-03-22T20:34:14.605Z,51.43
2019-03-22T20:36:43.765Z,68.53
2019-03-22T20:39:12.386Z,55.03
2019-03-22T20:41:40.685Z,36.60
2019-03-22T20:44:09.079Z,62.33
2019-03-22T20:46:37.253Z,49.10
2019-03-22T20:49:05.601Z,47.57
2019-03-22T20:51:33.932Z,46.90
2019-03-22T20:54:02.486Z,54.90
2019-03-22T20:56:30.832Z,50.43
2019-03-22T20:58:59.134Z,47.70
2019-03-22T21:01:27.592Z,39.57
2019-03-22T21:03:56.037Z,33.07
2019-03-22T21:06:27.065Z,32.43
2019-03-22T21:08:57.455Z,33.10
2019-03-22T21:11:26.875Z,29.33
2019-03-22T21:16:59.232Z,39.17
2019-03-22T21:19:27.509Z,49.50
2019-03-22T21:25:12.400Z,41.70
2019-03-22T21:30:57.131Z,41.20
2019-03-22T21:36:41.035Z,79.67
2019-03-22T21:39:09.237Z,80.27
2019-03-22T21:41:37.592Z,60.93
2019-03-22T21:47:09.899Z,34.03
2019-03-22T21:52:53.535Z,42.53
2019-03-22T21:55:21.841Z,56.53
2019-03-22T21:57:50.095Z,52.40
2019-03-22T22:00:18.485Z,57.37
2019-03-22T22:02:46.678Z,59.27
2019-03-22T22:05:20.950Z,59.63
2019-03-22T22:07:51.080Z,56.03
2019-03-22T22:10:20.714Z,56.57
2019-03-22T22:16:05.078Z,57.77
2019-03-22T22:21:49.019Z,69.53
2019-03-22T22:27:34.094Z,33.73
2019-03-22T22:30:02.476Z,39.83
2019-03-22T22:35:57.981Z,43.50
2019-03-22T22:38:18.031Z,47.70
2019-03-22T22:43:50.153Z,56.27
2019-03-22T22:46:18.517Z,52.97
2019-03-22T22:52:02.998Z,40.10
2019-03-22T22:58:00.095Z,45.93
2019-03-22T23:00:28.823Z,47.13
2019-03-22T23:06:14.180Z,55.00
2019-03-22T23:11:58.630Z,48.50
2019-03-22T23:17:44.728Z,46.83
2019-03-22T23:23:18.110Z,36.87
2019-03-22T23:29:03.148Z,38.87
2019-03-22T23:31:31.979Z,43.27
2019-03-22T23:34:00.409Z,49.43
2019-03-22T23:36:28.805Z,50.90
2019-03-22T23:42:13.076Z,37.93
2019-03-22T23:44:41.356Z,38.90
2019-03-22T23:50:27.384Z,38.93
2019-03-22T23:52:56.777Z,41.63
2019-03-22T23:58:40.568Z,44.63
